createdAt,value
2019-06-01T00:00:28.069Z,0.00
2019-06-01T00:01:28.059Z,0.00
2019-06-01T00:02:28.062Z,0.00
2019-06-01T00:03:28.046Z,0.00
2019-06-01T00:04:28.025Z,0.00
2019-06-01T00:05:28.015Z,0.00
2019-06-01T00:06:28.011Z,0.00
2019-06-01T00:07:27.995Z,0.00
2019-06-01T00:08:27.983Z,0.00
2019-06-01T00:09:27.982Z,0.00
2019-06-01T00:10:27.963Z,0.00
2019-06-01T00:11:27.951Z,0.00
2019-06-01T00:12:27.941Z,0.00
2019-06-01T00:13:27.929Z,0.00
2019-06-01T00:14:27.919Z,0.00
2019-06-01T00:15:27.922Z,0.00
2019-06-01T00:16:27.901Z,0.00
2019-06-01T00:17:27.888Z,0.00
2019-06-01T00:18:27.875Z,0.00
2019-06-01T00:19:27.866Z,0.00
2019-06-01T00:20:27.856Z,0.00
2019-06-01T00:21:27.859Z,0.00
2019-06-01T00:22:27.833Z,0.00
2019-06-01T00:23:27.833Z,0.00
2019-06-01T00:24:27.812Z,0.00
2019-06-01T00:25:27.804Z,0.00
2019-06-01T00:26:27.795Z,0.00
2019-06-01T00:27:27.791Z,0.00
2019-06-01T00:28:27.772Z,0.00
2019-06-01T00:29:27.759Z,0.00
2019-06-01T00:30:27.750Z,0.00
2019-06-01T00:31:27.738Z,0.00
2019-06-01T00:32:27.730Z,0.00
2019-06-01T00:33:27.741Z,0.00
2019-06-01T00:34:27.707Z,0.00
2019-06-01T00:35:27.700Z,0.00
2019-06-01T00:36:27.687Z,0.00
2019-06-01T00:37:27.673Z,0.00
2019-06-01T00:38:27.663Z,0.00
2019-06-01T00:39:27.664Z,0.00
2019-06-01T00:40:27.641Z,0.00
2019-06-01T00:41:27.630Z,0.00
2019-06-01T00:42:27.620Z,0.00
2019-06-01T00:43:27.610Z,0.00
2019-06-01T00:44:27.602Z,0.00
2019-06-01T00:45:27.608Z,0.00
2019-06-01T00:46:27.588Z,0.00
2019-06-01T00:47:27.567Z,0.00
2019-06-01T00:48:27.581Z,0.00
2019-06-01T00:49:27.566Z,0.00
2019-06-01T00:50:27.536Z,0.00
2019-06-01T00:51:27.534Z,0.00
2019-06-01T00:52:27.514Z,0.00
2019-06-01T00:53:27.505Z,0.00
2019-06-01T00:54:27.495Z,0.00
2019-06-01T00:55:27.481Z,0.00
2019-06-01T00:56:27.471Z,0.00
2019-06-01T00:57:27.480Z,0.00
2019-06-01T00:58:27.456Z,0.00
2019-06-01T00:59:27.440Z,0.00
2019-06-01T01:00:42.801Z,0.00
2019-06-01T01:01:28.416Z,0.00
2019-06-01T01:02:27.410Z,0.00
2019-06-01T01:03:27.405Z,0.00
2019-06-01T01:04:27.390Z,0.00
2019-06-01T01:05:27.380Z,0.00
2019-06-01T01:06:27.372Z,0.00
2019-06-01T01:07:27.349Z,0.00
2019-06-01T01:08:27.340Z,0.00
2019-06-01T01:09:27.341Z,0.00
2019-06-01T01:10:27.325Z,0.00
2019-06-01T01:11:27.306Z,0.00
2019-06-01T01:12:27.293Z,0.00
2019-06-01T01:13:27.288Z,0.00
2019-06-01T01:14:27.272Z,0.00
2019-06-01T01:15:27.273Z,0.00
2019-06-01T01:16:27.251Z,0.00
2019-06-01T01:17:27.247Z,0.00
2019-06-01T01:18:27.228Z,0.00
2019-06-01T01:19:27.216Z,0.00
2019-06-01T01:20:27.206Z,0.00
2019-06-01T01:21:27.205Z,0.00
2019-06-01T01:22:27.185Z,0.00
2019-06-01T01:23:27.189Z,0.00
2019-06-01T01:24:27.162Z,0.00
2019-06-01T01:25:27.181Z,0.00
2019-06-01T01:26:27.141Z,0.00
2019-06-01T01:27:27.144Z,0.00
2019-06-01T01:28:27.125Z,0.00
2019-06-01T01:29:27.106Z,0.00
2019-06-01T01:30:27.139Z,0.00
2019-06-01T01:31:27.087Z,0.00
2019-06-01T01:32:27.074Z,0.00
2019-06-01T01:33:27.072Z,0.00
2019-06-01T01:34:27.054Z,0.00
2019-06-01T01:35:27.042Z,0.00
2019-06-01T01:36:27.030Z,0.00
2019-06-01T01:37:27.018Z,0.00
2019-06-01T01:38:27.018Z,0.00
2019-06-01T01:39:27.006Z,0.00
2019-06-01T01:40:26.986Z,0.00
2019-06-01T01:41:26.973Z,0.00
2019-06-01T01:42:26.963Z,0.00
2019-06-01T01:43:26.951Z,0.00
2019-06-01T01:44:26.949Z,0.00
2019-06-01T01:45:26.940Z,0.00
2019-06-01T01:46:26.924Z,0.00
2019-06-01T01:47:26.908Z,0.00
2019-06-01T01:48:26.899Z,0.00
2019-06-01T01:49:26.887Z,0.00
2019-06-01T01:50:26.876Z,0.00
2019-06-01T01:51:26.883Z,0.00
2019-06-01T01:52:26.855Z,0.00
2019-06-01T01:53:26.847Z,0.00
2019-06-01T01:54:26.832Z,0.00
2019-06-01T01:55:26.820Z,0.00
2019-06-01T01:56:26.810Z,0.00
2019-06-01T01:57:26.817Z,0.00
2019-06-01T01:58:26.789Z,0.00
2019-06-01T01:59:26.784Z,0.00
2019-06-01T02:00:26.771Z,0.00
2019-06-01T02:01:26.757Z,0.00
2019-06-01T02:02:26.748Z,0.00
2019-06-01T02:03:26.746Z,0.00
2019-06-01T02:04:26.727Z,0.00
2019-06-01T02:05:26.715Z,0.00
2019-06-01T02:06:28.988Z,0.00
2019-06-01T02:07:26.692Z,0.00
2019-06-01T02:08:26.681Z,0.00
2019-06-01T02:09:26.698Z,0.00
2019-06-01T02:10:26.661Z,0.00
2019-06-01T02:11:26.650Z,0.00
2019-06-01T02:12:26.639Z,0.00
2019-06-01T02:13:26.637Z,0.00
2019-06-01T02:14:26.618Z,0.00
2019-06-01T02:15:26.618Z,0.00
2019-06-01T02:16:26.598Z,0.00
2019-06-01T02:17:26.608Z,0.00
2019-06-01T02:18:26.574Z,0.00
2019-06-01T02:19:26.565Z,0.00
2019-06-01T02:20:26.554Z,0.00
2019-06-01T02:21:26.562Z,0.00
2019-06-01T02:22:26.534Z,0.00
2019-06-01T02:23:26.521Z,0.00
2019-06-01T02:24:26.509Z,0.00
2019-06-01T02:25:26.497Z,0.00
2019-06-01T02:26:26.488Z,0.00
2019-06-01T02:27:26.491Z,0.00
2019-06-01T02:28:26.466Z,0.00
2019-06-01T02:29:26.455Z,0.00
2019-06-01T02:30:26.476Z,0.00
2019-06-01T02:31:40.558Z,0.00
2019-06-01T02:32:27.449Z,0.00
2019-06-01T02:33:26.412Z,0.00
2019-06-01T02:34:26.403Z,4.00
2019-06-01T02:35:26.395Z,4.00
2019-06-01T02:36:26.382Z,4.00
2019-06-01T02:37:26.370Z,0.00
2019-06-01T02:38:26.373Z,0.00
2019-06-01T02:39:26.350Z,4.00
2019-06-01T02:40:26.342Z,4.00
2019-06-01T02:41:26.328Z,4.00
2019-06-01T02:42:26.318Z,4.00
2019-06-01T02:43:26.306Z,4.00
2019-06-01T02:44:26.310Z,8.00
2019-06-01T02:45:26.287Z,4.00
2019-06-01T02:46:26.283Z,8.00
2019-06-01T02:47:26.266Z,8.00
2019-06-01T02:48:26.254Z,12.00
2019-06-01T02:49:26.260Z,12.00
2019-06-01T02:50:26.248Z,12.00
2019-06-01T02:51:26.221Z,12.00
2019-06-01T02:52:26.211Z,16.00
2019-06-01T02:53:26.200Z,16.00
2019-06-01T02:54:26.191Z,20.00
2019-06-01T02:55:26.186Z,20.00
2019-06-01T02:56:26.178Z,24.00
2019-06-01T02:57:26.156Z,28.00
2019-06-01T02:58:26.147Z,32.00
2019-06-01T02:59:26.136Z,36.00
2019-06-01T03:00:26.124Z,36.00
2019-06-01T03:01:26.115Z,44.00
2019-06-01T03:02:26.114Z,44.00
2019-06-01T03:03:26.094Z,52.00
2019-06-01T03:04:26.084Z,56.00
2019-06-01T03:05:26.071Z,64.00
2019-06-01T03:06:26.067Z,72.00
2019-06-01T03:07:26.051Z,80.00
2019-06-01T03:08:26.058Z,88.00
2019-06-01T03:09:26.045Z,100.00
2019-06-01T03:10:26.017Z,108.00
2019-06-01T03:11:26.008Z,120.00
2019-06-01T03:12:25.998Z,128.00
2019-06-01T03:13:25.987Z,136.00
2019-06-01T03:14:26.014Z,144.00
2019-06-01T03:15:25.967Z,152.00
2019-06-01T03:16:25.954Z,168.00
2019-06-01T03:17:25.943Z,176.00
2019-06-01T03:18:25.932Z,192.00
2019-06-01T03:19:25.922Z,208.00
2019-06-01T03:20:25.923Z,228.00
2019-06-01T03:21:25.900Z,248.00
2019-06-01T03:22:25.890Z,268.00
2019-06-01T03:23:25.881Z,296.00
2019-06-01T03:24:25.868Z,320.00
2019-06-01T03:25:25.860Z,344.00
2019-06-01T03:26:25.861Z,376.00
2019-06-01T03:27:25.836Z,400.00
2019-06-01T03:28:25.826Z,428.00
2019-06-01T03:29:25.815Z,452.00
2019-06-01T03:30:25.804Z,480.00
2019-06-01T03:31:25.794Z,512.00
2019-06-01T03:32:36.125Z,544.00
2019-06-01T03:33:26.771Z,580.00
2019-06-01T03:34:25.765Z,616.00
2019-06-01T03:35:25.751Z,648.00
2019-06-01T03:36:25.749Z,684.00
2019-06-01T03:37:25.730Z,716.00
2019-06-01T03:38:25.734Z,748.00
2019-06-01T03:39:25.718Z,780.00
2019-06-01T03:40:25.698Z,820.00
2019-06-01T03:41:25.686Z,864.00
2019-06-01T03:42:25.675Z,908.00
2019-06-01T03:43:25.665Z,952.00
2019-06-01T03:44:25.672Z,1004.00
2019-06-01T03:45:25.643Z,1064.00
2019-06-01T03:46:25.647Z,1124.00
2019-06-01T03:47:25.625Z,1200.00
2019-06-01T03:48:25.612Z,1284.00
2019-06-01T03:49:25.598Z,1364.00
2019-06-01T03:50:25.607Z,1440.00
2019-06-01T03:51:25.577Z,1520.00
2019-06-01T03:52:25.566Z,1596.00
2019-06-01T03:53:25.555Z,1644.00
2019-06-01T03:54:25.543Z,1700.00
2019-06-01T03:55:25.535Z,1780.00
2019-06-01T03:56:25.552Z,1840.00
2019-06-01T03:57:25.510Z,1868.00
2019-06-01T03:58:25.501Z,1888.00
2019-06-01T03:59:25.492Z,1832.00
2019-06-01T04:00:25.486Z,1804.00
2019-06-01T04:01:25.470Z,1804.00
2019-06-01T04:02:33.089Z,1824.00
2019-06-01T04:03:26.441Z,1900.00
2019-06-01T04:04:25.438Z,2004.00
2019-06-01T04:05:25.424Z,2040.00
2019-06-01T04:06:25.411Z,2036.00
2019-06-01T04:07:25.400Z,2064.00
2019-06-01T04:08:25.406Z,2112.00
2019-06-01T04:09:25.404Z,2128.00
2019-06-01T04:10:25.369Z,2172.00
2019-06-01T04:11:25.360Z,2232.00
2019-06-01T04:12:25.347Z,2376.00
2019-06-01T04:13:25.335Z,2620.00
2019-06-01T04:14:25.338Z,2736.00
2019-06-01T04:15:25.315Z,2696.00
2019-06-01T04:16:25.307Z,2964.00
2019-06-01T04:17:25.294Z,3304.00
2019-06-01T04:18:25.287Z,3060.00
2019-06-01T04:19:25.273Z,3064.00
2019-06-01T04:20:25.278Z,3348.00
2019-06-01T04:21:25.251Z,3804.00
2019-06-01T04:22:25.248Z,5460.00
2019-06-01T04:23:25.228Z,6120.00
2019-06-01T04:24:25.217Z,5180.00
2019-06-01T04:25:25.206Z,4660.00
2019-06-01T04:26:25.205Z,5196.00
2019-06-01T04:27:25.183Z,4988.00
2019-06-01T04:28:25.175Z,6484.00
2019-06-01T04:29:25.162Z,5168.00
2019-06-01T04:30:25.155Z,3844.00
2019-06-01T04:31:25.141Z,4348.00
2019-06-01T04:32:25.147Z,5956.00
2019-06-01T04:33:25.120Z,5084.00
2019-06-01T04:34:25.110Z,3488.00
2019-06-01T04:35:25.099Z,2796.00
2019-06-01T04:36:25.088Z,2880.00
2019-06-01T04:37:25.078Z,3056.00
2019-06-01T04:38:25.077Z,3224.00
2019-06-01T04:39:25.062Z,4328.00
2019-06-01T04:40:25.046Z,3800.00
2019-06-01T04:41:25.036Z,3616.00
2019-06-01T04:42:25.023Z,3852.00
2019-06-01T04:43:25.013Z,3848.00
2019-06-01T04:44:25.017Z,3492.00
2019-06-01T04:45:24.990Z,2996.00
2019-06-01T04:46:24.986Z,2520.00
2019-06-01T04:47:24.970Z,3012.00
2019-06-01T04:48:24.958Z,4032.00
2019-06-01T04:49:24.948Z,5372.00
2019-06-01T04:50:24.948Z,5444.00
2019-06-01T04:51:24.933Z,4564.00
2019-06-01T04:52:24.915Z,6256.00
2019-06-01T04:53:24.904Z,7552.00
2019-06-01T04:54:24.893Z,7216.00
2019-06-01T04:55:24.883Z,7724.00
2019-06-01T04:56:24.883Z,8300.00
2019-06-01T04:57:24.860Z,7792.00
2019-06-01T04:58:24.848Z,7960.00
2019-06-01T04:59:24.841Z,7788.00
2019-06-01T05:00:27.855Z,9060.00
2019-06-01T05:01:24.817Z,9224.00
2019-06-01T05:02:24.820Z,10632.00
2019-06-01T05:03:24.795Z,8084.00
2019-06-01T05:04:24.785Z,9172.00
2019-06-01T05:05:24.778Z,8276.00
2019-06-01T05:06:24.763Z,7520.00
2019-06-01T05:07:24.752Z,6624.00
2019-06-01T05:08:24.768Z,7744.00
2019-06-01T05:09:24.730Z,8792.00
2019-06-01T05:10:24.718Z,11792.00
2019-06-01T05:11:24.710Z,12068.00
2019-06-01T05:12:24.697Z,12140.00
2019-06-01T05:13:24.685Z,11656.00
2019-06-01T05:14:24.685Z,11848.00
2019-06-01T05:15:24.667Z,10572.00
2019-06-01T05:16:24.665Z,12640.00
2019-06-01T05:17:24.645Z,11820.00
2019-06-01T05:18:24.633Z,7284.00
2019-06-01T05:19:24.624Z,13444.00
2019-06-01T05:20:24.620Z,14112.00
2019-06-01T05:21:24.600Z,12824.00
2019-06-01T05:22:24.589Z,11608.00
2019-06-01T05:23:24.579Z,8900.00
2019-06-01T05:24:24.569Z,12952.00
2019-06-01T05:25:24.556Z,14336.00
2019-06-01T05:26:24.565Z,11108.00
2019-06-01T05:27:24.535Z,11152.00
2019-06-01T05:28:24.523Z,13172.00
2019-06-01T05:29:24.513Z,12836.00
2019-06-01T05:30:24.502Z,9668.00
2019-06-01T05:31:25.395Z,11636.00
2019-06-01T05:32:24.498Z,14624.00
2019-06-01T05:33:36.470Z,15232.00
2019-06-01T05:34:25.458Z,14592.00
2019-06-01T05:35:24.450Z,14120.00
2019-06-01T05:36:24.438Z,14156.00
2019-06-01T05:37:24.437Z,14816.00
2019-06-01T05:38:24.429Z,15616.00
2019-06-01T05:39:24.407Z,15488.00
2019-06-01T05:40:24.398Z,12980.00
2019-06-01T05:41:24.383Z,12500.00
2019-06-01T05:42:24.373Z,18432.00
2019-06-01T05:43:24.366Z,11756.00
2019-06-01T05:44:24.381Z,11172.00
2019-06-01T05:45:24.364Z,16032.00
2019-06-01T05:46:24.331Z,16672.00
2019-06-01T05:47:24.331Z,19872.00
2019-06-01T05:48:28.491Z,26048.00
2019-06-01T05:49:25.307Z,28064.00
2019-06-01T05:50:24.287Z,12588.00
2019-06-01T05:51:24.277Z,10976.00
2019-06-01T05:52:24.267Z,10148.00
2019-06-01T05:53:24.256Z,9920.00
2019-06-01T05:54:24.248Z,7532.00
2019-06-01T05:55:24.245Z,7956.00
2019-06-01T05:56:24.224Z,11364.00
2019-06-01T05:57:24.214Z,29056.00
2019-06-01T05:58:24.201Z,26752.00
2019-06-01T05:59:24.192Z,22592.00
2019-06-01T06:00:24.183Z,13260.00
2019-06-01T06:01:24.185Z,10928.00
2019-06-01T06:02:24.158Z,10980.00
2019-06-01T06:03:39.536Z,15264.00
2019-06-01T06:04:25.137Z,14120.00
2019-06-01T06:05:24.129Z,13720.00
2019-06-01T06:06:24.118Z,13440.00
2019-06-01T06:07:24.129Z,12872.00
2019-06-01T06:08:24.094Z,12984.00
2019-06-01T06:09:24.083Z,13292.00
2019-06-01T06:10:24.075Z,13264.00
2019-06-01T06:11:24.064Z,12884.00
2019-06-01T06:12:24.055Z,13184.00
2019-06-01T06:13:24.061Z,13236.00
2019-06-01T06:14:24.031Z,13344.00
2019-06-01T06:15:24.022Z,13440.00
2019-06-01T06:16:24.011Z,13616.00
2019-06-01T06:17:24.395Z,13468.00
2019-06-01T06:18:23.991Z,13076.00
2019-06-01T06:19:23.989Z,13396.00
2019-06-01T06:20:23.967Z,14936.00
2019-06-01T06:21:23.957Z,16608.00
2019-06-01T06:22:23.947Z,21408.00
2019-06-01T06:23:23.937Z,29344.00
2019-06-01T06:24:23.926Z,29312.00
2019-06-01T06:25:28.209Z,28768.00
2019-06-01T06:26:24.904Z,31232.00
2019-06-01T06:27:23.897Z,34016.00
2019-06-01T06:28:26.618Z,30912.00
2019-06-01T06:29:23.875Z,31360.00
2019-06-01T06:30:23.862Z,29728.00
2019-06-01T06:31:23.866Z,31520.00
2019-06-01T06:32:23.842Z,32448.00
2019-06-01T06:33:23.830Z,31488.00
2019-06-01T06:34:23.820Z,29184.00
2019-06-01T06:35:23.809Z,31456.00
2019-06-01T06:36:23.895Z,33856.00
2019-06-01T06:37:23.942Z,32576.00
2019-06-01T06:38:24.062Z,30560.00
2019-06-01T06:39:24.239Z,27488.00
2019-06-01T06:40:24.290Z,28256.00
2019-06-01T06:41:24.462Z,30944.00
2019-06-01T06:42:24.475Z,28576.00
2019-06-01T06:43:32.438Z,27360.00
2019-06-01T06:44:24.880Z,29248.00
2019-06-01T06:45:24.853Z,29760.00
2019-06-01T06:46:24.828Z,31456.00
2019-06-01T06:47:23.961Z,32736.00
2019-06-01T06:48:23.675Z,33344.00
2019-06-01T06:49:23.687Z,30816.00
2019-06-01T06:50:23.672Z,30944.00
2019-06-01T06:51:23.649Z,33056.00
2019-06-01T06:52:23.727Z,35072.00
2019-06-01T06:53:32.650Z,32736.00
2019-06-01T06:54:25.931Z,32224.00
2019-06-01T06:55:24.052Z,33184.00
2019-06-01T06:56:24.030Z,34816.00
2019-06-01T06:57:24.234Z,36672.00
2019-06-01T06:58:24.457Z,40704.00
2019-06-01T06:59:24.606Z,42656.00
2019-06-01T07:00:24.809Z,39744.00
2019-06-01T07:01:24.775Z,38720.00
2019-06-01T07:02:23.534Z,39584.00
2019-06-01T07:03:23.521Z,36160.00
2019-06-01T07:04:23.524Z,36160.00
2019-06-01T07:05:23.553Z,36384.00
2019-06-01T07:06:23.689Z,37312.00
2019-06-01T07:07:23.792Z,35776.00
2019-06-01T07:08:23.897Z,35616.00
2019-06-01T07:09:24.070Z,34624.00
2019-06-01T07:10:24.253Z,37408.00
2019-06-01T07:11:23.530Z,37280.00
2019-06-01T07:12:23.440Z,39296.00
2019-06-01T07:13:23.473Z,35872.00
2019-06-01T07:14:23.568Z,38176.00
2019-06-01T07:15:23.521Z,41600.00
2019-06-01T07:16:23.530Z,40608.00
2019-06-01T07:17:23.601Z,40544.00
2019-06-01T07:18:23.739Z,40640.00
2019-06-01T07:19:23.775Z,44256.00
2019-06-01T07:20:23.694Z,44640.00
2019-06-01T07:21:23.765Z,43200.00
2019-06-01T07:22:23.821Z,46048.00
2019-06-01T07:23:23.851Z,46496.00
2019-06-01T07:24:23.928Z,45280.00
2019-06-01T07:25:23.296Z,45696.00
2019-06-01T07:26:24.084Z,44928.00
2019-06-01T07:27:24.121Z,44736.00
2019-06-01T07:28:24.138Z,45568.00
2019-06-01T07:29:24.199Z,46784.00
2019-06-01T07:30:24.242Z,48160.00
2019-06-01T07:31:24.229Z,46304.00
2019-06-01T07:32:24.626Z,47392.00
2019-06-01T07:33:24.293Z,45888.00
2019-06-01T07:34:35.562Z,47328.00
2019-06-01T07:35:24.480Z,47360.00
2019-06-01T07:36:24.399Z,46400.00
2019-06-01T07:37:24.358Z,47456.00
2019-06-01T07:38:24.521Z,48576.00
2019-06-01T07:39:24.454Z,48320.00
2019-06-01T07:40:23.138Z,49632.00
2019-06-01T07:41:23.141Z,50208.00
2019-06-01T07:42:24.770Z,49696.00
2019-06-01T07:43:23.105Z,48864.00
2019-06-01T07:44:23.096Z,48416.00
2019-06-01T07:45:23.084Z,48800.00
2019-06-01T07:46:23.076Z,49824.00
2019-06-01T07:47:23.074Z,51168.00
2019-06-01T07:48:23.181Z,53216.00
2019-06-01T07:49:23.301Z,49984.00
2019-06-01T07:50:23.934Z,50848.00
2019-06-01T07:51:23.254Z,50848.00
2019-06-01T07:52:24.110Z,49088.00
2019-06-01T07:53:24.061Z,49792.00
2019-06-01T07:54:24.748Z,48896.00
2019-06-01T07:55:23.505Z,48992.00
2019-06-01T07:56:24.011Z,52544.00
2019-06-01T07:57:23.560Z,53344.00
2019-06-01T07:58:22.949Z,50912.00
2019-06-01T07:59:24.421Z,51808.00
2019-06-01T08:00:24.051Z,51712.00
2019-06-01T08:01:24.976Z,45664.00
2019-06-01T08:02:25.864Z,48960.00
2019-06-01T08:03:26.084Z,49088.00
2019-06-01T08:04:24.647Z,50144.00
2019-06-01T08:05:24.727Z,51744.00
2019-06-01T08:06:23.980Z,54592.00
2019-06-01T08:07:23.368Z,52032.00
2019-06-01T08:08:23.360Z,54592.00
2019-06-01T08:09:24.517Z,54400.00
2019-06-01T08:10:24.442Z,51456.00
2019-06-01T08:11:25.004Z,53184.00
2019-06-01T08:12:23.797Z,48832.00
2019-06-01T08:13:23.420Z,49472.00
2019-06-01T08:14:22.777Z,52608.00
2019-06-01T08:15:23.551Z,50656.00
2019-06-01T08:16:23.676Z,43520.00
2019-06-01T08:17:24.073Z,36672.00
2019-06-01T08:18:23.889Z,39680.00
2019-06-01T08:19:23.848Z,28832.00
2019-06-01T08:20:23.866Z,17600.00
2019-06-01T08:21:23.894Z,14404.00
2019-06-01T08:22:23.769Z,13104.00
2019-06-01T08:23:23.789Z,12028.00
2019-06-01T08:24:22.672Z,11848.00
2019-06-01T08:25:22.664Z,12280.00
2019-06-01T08:26:22.667Z,11764.00
2019-06-01T08:27:22.643Z,11444.00
2019-06-01T08:28:22.645Z,11472.00
2019-06-01T08:29:22.746Z,11244.00
2019-06-01T08:30:22.647Z,11332.00
2019-06-01T08:31:22.650Z,11304.00
2019-06-01T08:32:22.747Z,8840.00
2019-06-01T08:33:26.602Z,7248.00
2019-06-01T08:34:24.703Z,7488.00
2019-06-01T08:35:22.850Z,8144.00
2019-06-01T08:36:23.174Z,8240.00
2019-06-01T08:37:23.476Z,8524.00
2019-06-01T08:38:23.345Z,8052.00
2019-06-01T08:39:23.485Z,8068.00
2019-06-01T08:40:23.311Z,9316.00
2019-06-01T08:41:23.394Z,9476.00
2019-06-01T08:42:23.439Z,8864.00
2019-06-01T08:43:23.547Z,9844.00
2019-06-01T08:44:23.551Z,9976.00
2019-06-01T08:45:23.539Z,10244.00
2019-06-01T08:46:23.631Z,9968.00
2019-06-01T08:47:23.568Z,10008.00
2019-06-01T08:48:23.580Z,9544.00
2019-06-01T08:49:23.803Z,9864.00
2019-06-01T08:50:23.726Z,10344.00
2019-06-01T08:51:23.845Z,9952.00
2019-06-01T08:52:23.775Z,9808.00
2019-06-01T08:53:22.370Z,9576.00
2019-06-01T08:54:22.361Z,9524.00
2019-06-01T08:55:22.350Z,9540.00
2019-06-01T08:56:22.341Z,9700.00
2019-06-01T08:57:22.331Z,9684.00
2019-06-01T08:58:22.331Z,9228.00
2019-06-01T08:59:22.320Z,8268.00
2019-06-01T09:00:22.300Z,9552.00
2019-06-01T09:01:22.288Z,9124.00
2019-06-01T09:02:22.304Z,9204.00
2019-06-01T09:03:22.281Z,9120.00
2019-06-01T09:04:22.267Z,8276.00
2019-06-01T09:05:25.830Z,7796.00
2019-06-01T09:06:22.235Z,8024.00
2019-06-01T09:07:22.226Z,7476.00
2019-06-01T09:08:23.951Z,7860.00
2019-06-01T09:09:22.202Z,8740.00
2019-06-01T09:10:22.204Z,8700.00
2019-06-01T09:11:22.182Z,8576.00
2019-06-01T09:12:22.171Z,8508.00
2019-06-01T09:13:22.160Z,8308.00
2019-06-01T09:14:22.150Z,8076.00
2019-06-01T09:15:22.139Z,8104.00
2019-06-01T09:16:22.140Z,7976.00
2019-06-01T09:17:22.118Z,7860.00
2019-06-01T09:18:22.116Z,7676.00
2019-06-01T09:19:22.098Z,7740.00
2019-06-01T09:20:22.089Z,7616.00
2019-06-01T09:21:22.075Z,7544.00
2019-06-01T09:22:22.078Z,7496.00
2019-06-01T09:23:22.054Z,7488.00
2019-06-01T09:24:22.084Z,7444.00
2019-06-01T09:25:22.041Z,7528.00
2019-06-01T09:26:22.023Z,7440.00
2019-06-01T09:27:22.012Z,7228.00
2019-06-01T09:28:22.036Z,7284.00
2019-06-01T09:29:21.993Z,7208.00
2019-06-01T09:30:21.984Z,7268.00
2019-06-01T09:31:21.990Z,7288.00
2019-06-01T09:32:21.960Z,7136.00
2019-06-01T09:33:21.948Z,7188.00
2019-06-01T09:34:21.949Z,7340.00
2019-06-01T09:35:21.929Z,7260.00
2019-06-01T09:36:21.918Z,7180.00
2019-06-01T09:37:21.907Z,7216.00
2019-06-01T09:38:21.901Z,7260.00
2019-06-01T09:39:21.889Z,7056.00
2019-06-01T09:40:21.886Z,7116.00
2019-06-01T09:41:21.869Z,7188.00
2019-06-01T09:42:21.858Z,7184.00
2019-06-01T09:43:21.849Z,7380.00
2019-06-01T09:44:21.839Z,7404.00
2019-06-01T09:45:21.825Z,7192.00
2019-06-01T09:46:21.826Z,7100.00
2019-06-01T09:47:21.805Z,7016.00
2019-06-01T09:48:21.794Z,7340.00
2019-06-01T09:49:21.784Z,7412.00
2019-06-01T09:50:21.791Z,7944.00
2019-06-01T09:51:21.764Z,7084.00
2019-06-01T09:52:21.765Z,7028.00
2019-06-01T09:53:21.744Z,7028.00
2019-06-01T09:54:21.733Z,6980.00
2019-06-01T09:55:21.725Z,7060.00
2019-06-01T09:56:21.712Z,7108.00
2019-06-01T09:57:21.703Z,7188.00
2019-06-01T09:58:21.702Z,7072.00
2019-06-01T09:59:21.685Z,7044.00
2019-06-01T10:00:21.672Z,6996.00
2019-06-01T10:01:21.662Z,6896.00
2019-06-01T10:02:21.650Z,6816.00
2019-06-01T10:03:21.640Z,6796.00
2019-06-01T10:04:21.641Z,6744.00
2019-06-01T10:05:21.619Z,6636.00
2019-06-01T10:06:21.610Z,6676.00
2019-06-01T10:07:21.601Z,6780.00
2019-06-01T10:08:21.589Z,6784.00
2019-06-01T10:09:21.577Z,6768.00
2019-06-01T10:10:21.596Z,6804.00
2019-06-01T10:11:21.558Z,6820.00
2019-06-01T10:12:21.575Z,6796.00
2019-06-01T10:13:21.540Z,6664.00
2019-06-01T10:14:21.525Z,6632.00
2019-06-01T10:15:21.518Z,6716.00
2019-06-01T10:16:21.516Z,6604.00
2019-06-01T10:17:21.496Z,6556.00
2019-06-01T10:18:21.487Z,6564.00
2019-06-01T10:19:21.474Z,6608.00
2019-06-01T10:20:21.470Z,6608.00
2019-06-01T10:21:21.451Z,6804.00
2019-06-01T10:22:21.469Z,6932.00
2019-06-01T10:23:21.431Z,7140.00
2019-06-01T10:24:21.431Z,7296.00
2019-06-01T10:25:21.416Z,7556.00
2019-06-01T10:26:21.412Z,8016.00
2019-06-01T10:27:21.392Z,8600.00
2019-06-01T10:28:21.397Z,9804.00
2019-06-01T10:29:21.372Z,12408.00
2019-06-01T10:30:21.376Z,33120.00
2019-06-01T10:31:21.353Z,66272.00
2019-06-01T10:32:21.347Z,78944.00
2019-06-01T10:33:21.331Z,79232.00
2019-06-01T10:34:21.332Z,81792.00
2019-06-01T10:35:21.312Z,81408.00
2019-06-01T10:36:21.733Z,77312.00
2019-06-01T10:37:21.306Z,80224.00
2019-06-01T10:38:21.279Z,71552.00
2019-06-01T10:39:21.274Z,75616.00
2019-06-01T10:40:21.270Z,75136.00
2019-06-01T10:41:21.253Z,75072.00
2019-06-01T10:42:21.239Z,76512.00
2019-06-01T10:43:21.228Z,73824.00
2019-06-01T10:44:21.217Z,72192.00
2019-06-01T10:45:21.303Z,37344.00
2019-06-01T10:46:21.215Z,9540.00
2019-06-01T10:47:21.187Z,7928.00
2019-06-01T10:48:21.182Z,7156.00
2019-06-01T10:49:21.167Z,6632.00
2019-06-01T10:50:21.158Z,6236.00
2019-06-01T10:51:21.228Z,6044.00
2019-06-01T10:52:21.160Z,5900.00
2019-06-01T10:53:21.128Z,5720.00
2019-06-01T10:54:21.113Z,5680.00
2019-06-01T10:55:21.104Z,5720.00
2019-06-01T10:56:21.094Z,5752.00
2019-06-01T10:57:21.084Z,5560.00
2019-06-01T10:58:21.090Z,5444.00
2019-06-01T10:59:21.061Z,5352.00
2019-06-01T11:00:37.048Z,5304.00
2019-06-01T11:01:22.039Z,5276.00
2019-06-01T11:02:21.030Z,5204.00
2019-06-01T11:03:21.025Z,5160.00
2019-06-01T11:04:21.021Z,5112.00
2019-06-01T11:05:20.998Z,4996.00
2019-06-01T11:06:36.182Z,5032.00
2019-06-01T11:07:21.977Z,4984.00
2019-06-01T11:08:20.966Z,4916.00
2019-06-01T11:09:20.961Z,4888.00
2019-06-01T11:10:20.957Z,4792.00
2019-06-01T11:11:20.935Z,4696.00
2019-06-01T11:12:20.924Z,4632.00
2019-06-01T11:13:20.916Z,4544.00
2019-06-01T11:14:20.902Z,4476.00
2019-06-01T11:15:20.899Z,4372.00
2019-06-01T11:16:20.893Z,4420.00
2019-06-01T11:17:20.874Z,4396.00
2019-06-01T11:18:20.859Z,4352.00
2019-06-01T11:19:20.852Z,4224.00
2019-06-01T11:20:20.841Z,4244.00
2019-06-01T11:21:20.828Z,4188.00
2019-06-01T11:22:20.828Z,4220.00
2019-06-01T11:23:20.815Z,4236.00
2019-06-01T11:24:20.796Z,4156.00
2019-06-01T11:25:20.785Z,4092.00
2019-06-01T11:26:20.777Z,4056.00
2019-06-01T11:27:20.763Z,4008.00
2019-06-01T11:28:20.766Z,3884.00
2019-06-01T11:29:20.751Z,3844.00
2019-06-01T11:30:20.733Z,3888.00
2019-06-01T11:31:20.722Z,3868.00
2019-06-01T11:32:20.713Z,3836.00
2019-06-01T11:33:20.702Z,3840.00
2019-06-01T11:34:20.701Z,3792.00
2019-06-01T11:35:20.681Z,3808.00
2019-06-01T11:36:20.672Z,3836.00
2019-06-01T11:37:20.678Z,3828.00
2019-06-01T11:38:20.649Z,3760.00
2019-06-01T11:39:20.638Z,3792.00
2019-06-01T11:40:20.668Z,3788.00
2019-06-01T11:41:20.618Z,3752.00
2019-06-01T11:42:20.609Z,3688.00
2019-06-01T11:43:20.596Z,3680.00
2019-06-01T11:44:20.587Z,3652.00
2019-06-01T11:45:20.575Z,3608.00
2019-06-01T11:46:20.578Z,3608.00
2019-06-01T11:47:20.557Z,3572.00
2019-06-01T11:48:20.544Z,3560.00
2019-06-01T11:49:21.510Z,3540.00
2019-06-01T11:50:20.524Z,3548.00
2019-06-01T11:51:20.513Z,3544.00
2019-06-01T11:52:20.513Z,3464.00
2019-06-01T11:53:20.497Z,3424.00
2019-06-01T11:54:20.489Z,3428.00
2019-06-01T11:55:20.471Z,3392.00
2019-06-01T11:56:20.460Z,3344.00
2019-06-01T11:57:20.451Z,3348.00
2019-06-01T11:58:20.475Z,3340.00
2019-06-01T11:59:21.293Z,3328.00
2019-06-01T12:00:20.421Z,3292.00
2019-06-01T12:01:20.427Z,3256.00
2019-06-01T12:02:20.397Z,3300.00
2019-06-01T12:03:20.388Z,3300.00
2019-06-01T12:04:20.390Z,3288.00
2019-06-01T12:05:20.366Z,3256.00
2019-06-01T12:06:20.355Z,3204.00
2019-06-01T12:07:20.348Z,3132.00
2019-06-01T12:08:20.334Z,3108.00
2019-06-01T12:09:20.323Z,3144.00
2019-06-01T12:10:20.326Z,3168.00
2019-06-01T12:11:20.303Z,3080.00
2019-06-01T12:12:20.291Z,3036.00
2019-06-01T12:13:20.284Z,2980.00
2019-06-01T12:14:20.273Z,2960.00
2019-06-01T12:15:20.263Z,2972.00
2019-06-01T12:16:20.261Z,2988.00